Terminal Aerodrome Forecast
Issued by NWS

Home | Current Version | Previous Version | Text Only | Print | Product List | Glossary On
Versions: 1 2 3 4 5 6 7 8 9 10 11 12 13 14 15 16 17 18 19 20 21
000
FTUS41 KBOX 052320
TAFFMH
TAF
KFMH 052320Z 0600/0624 01016KT 3SM -RA BR OVC008
     FM060500 36011KT 3SM -DZ BR OVC008
     FM061100 03009KT P6SM OVC015
     FM061700 06013KT P6SM BKN015
     FM062000 08013KT P6SM VCSH BKN015=

USA.gov is the U.S. government's official web portal to all federal, state and local government web resources and services.